In Rescue
 
Open Full Screen Window  High Contrast Mode
Wind Gusting 00 knots
04
May 25, 2022 8:57 PM CDT
Weather Information
Wind Direction
  050 °
Wind Speed
  04 kt (5 mph)
Wind Gust
  00 kt (0 mph)
Altimeter
29.95 in
Visibility
10 SM
Temperature
09° C
48° F
Dewpoint
06° C
43° F
Humidity
82%
1hr Rain Fall
00.00 in.
24hr Rain Fall
00.00 in.
Sky Condition
Overcast @ 7,500 ft
Broken @ 2,900 ft
Scattered @ 2,100 ft
MVFR

METAR KXVG 260157Z AUTO 05004KT 10SM SCT021 BKN029 OVC075 09/06 A2995 RMK AO2

FAA Disclaimer: The data displayed is for advisory purposes only and is not to be used for flight planning or operations.